sensor_id;sensor_type;location;lat;lon;timestamp;temperature;humidity
8313;DHT22;4194;43.408;24.626;2023-07-30T00:01:40;20.30;99.90
8313;DHT22;4194;43.408;24.626;2023-07-30T00:04:05;20.90;99.90
8313;DHT22;4194;43.408;24.626;2023-07-30T00:06:31;20.30;99.90
8313;DHT22;4194;43.408;24.626;2023-07-30T00:08:57;19.70;99.90
8313;DHT22;4194;43.408;24.626;2023-07-30T00:11:23;18.90;99.90
8313;DHT22;4194;43.408;24.626;2023-07-30T00:13:48;19.90;99.90
8313;DHT22;4194;43.408;24.626;2023-07-30T00:16:14;20.00;99.90
8313;DHT22;4194;43.408;24.626;2023-07-30T00:18:40;19.80;99.90
8313;DHT22;4194;43.408;24.626;2023-07-30T00:21:05;19.10;99.90
8313;DHT22;4194;43.408;24.626;2023-07-30T00:23:31;19.80;99.90
8313;DHT22;4194;43.408;24.626;2023-07-30T00:25:56;19.80;99.90
8313;DHT22;4194;43.408;24.626;2023-07-30T00:28:22;19.00;99.90
8313;DHT22;4194;43.408;24.626;2023-07-30T00:30:48;20.80;99.90
8313;DHT22;4194;43.408;24.626;2023-07-30T00:33:13;20.60;99.90
8313;DHT22;4194;43.408;24.626;2023-07-30T00:35:39;18.70;99.90
8313;DHT22;4194;43.408;24.626;2023-07-30T00:38:05;18.70;99.90
8313;DHT22;4194;43.408;24.626;2023-07-30T00:42:56;18.90;99.90
8313;DHT22;4194;43.408;24.626;2023-07-30T00:45:22;19.80;99.90
8313;DHT22;4194;43.408;24.626;2023-07-30T00:47:48;19.90;99.90
8313;DHT22;4194;43.408;24.626;2023-07-30T00:50:16;20.40;99.90
8313;DHT22;4194;43.408;24.626;2023-07-30T00:52:43;20.20;99.90
8313;DHT22;4194;43.408;24.626;2023-07-30T00:55:09;19.90;99.90
8313;DHT22;4194;43.408;24.626;2023-07-30T00:57:36;19.80;99.90
8313;DHT22;4194;43.408;24.626;2023-07-30T01:00:03;19.80;99.90
8313;DHT22;4194;43.408;24.626;2023-07-30T01:02:31;19.80;99.90
8313;DHT22;4194;43.408;24.626;2023-07-30T01:04:58;20.80;99.90
8313;DHT22;4194;43.408;24.626;2023-07-30T01:07:25;19.80;99.90
8313;DHT22;4194;43.408;24.626;2023-07-30T01:09:51;19.80;99.90
8313;DHT22;4194;43.408;24.626;2023-07-30T01:12:17;19.50;99.90
8313;DHT22;4194;43.408;24.626;2023-07-30T01:14:45;19.50;99.90
8313;DHT22;4194;43.408;24.626;2023-07-30T01:17:11;20.10;99.90
8313;DHT22;4194;43.408;24.626;2023-07-30T01:19:37;19.90;99.90
8313;DHT22;4194;43.408;24.626;2023-07-30T01:22:03;19.40;99.90
8313;DHT22;4194;43.408;24.626;2023-07-30T01:24:29;19.30;99.90
8313;DHT22;4194;43.408;24.626;2023-07-30T01:27:28;19.30;99.90
8313;DHT22;4194;43.408;24.626;2023-07-30T01:30:17;20.00;99.90
8313;DHT22;4194;43.408;24.626;2023-07-30T01:32:45;19.20;99.90
8313;DHT22;4194;43.408;24.626;2023-07-30T01:35:13;19.00;99.90
8313;DHT22;4194;43.408;24.626;2023-07-30T01:37:41;18.10;99.90
8313;DHT22;4194;43.408;24.626;2023-07-30T01:40:08;19.00;99.90
8313;DHT22;4194;43.408;24.626;2023-07-30T01:42:34;19.20;99.90
8313;DHT22;4194;43.408;24.626;2023-07-30T01:45:00;19.40;99.90
8313;DHT22;4194;43.408;24.626;2023-07-30T01:47:25;19.80;99.90
8313;DHT22;4194;43.408;24.626;2023-07-30T01:49:51;19.10;99.90
8313;DHT22;4194;43.408;24.626;2023-07-30T01:52:16;19.60;99.90
8313;DHT22;4194;43.408;24.626;2023-07-30T01:54:42;19.40;99.90
8313;DHT22;4194;43.408;24.626;2023-07-30T01:57:08;19.70;99.90
8313;DHT22;4194;43.408;24.626;2023-07-30T01:59:33;18.70;99.90
8313;DHT22;4194;43.408;24.626;2023-07-30T02:01:59;18.80;99.90
8313;DHT22;4194;43.408;24.626;2023-07-30T02:04:25;19.10;99.90
8313;DHT22;4194;43.408;24.626;2023-07-30T02:09:16;19.20;99.90
8313;DHT22;4194;43.408;24.626;2023-07-30T02:11:42;18.90;99.90
8313;DHT22;4194;43.408;24.626;2023-07-30T02:14:09;19.10;99.90
8313;DHT22;4194;43.408;24.626;2023-07-30T02:16:35;18.10;99.90
8313;DHT22;4194;43.408;24.626;2023-07-30T02:19:01;17.90;99.90
8313;DHT22;4194;43.408;24.626;2023-07-30T02:21:27;19.00;99.90
8313;DHT22;4194;43.408;24.626;2023-07-30T02:23:52;19.20;99.90
8313;DHT22;4194;43.408;24.626;2023-07-30T02:26:18;18.60;99.90
8313;DHT22;4194;43.408;24.626;2023-07-30T02:31:09;19.40;99.90
8313;DHT22;4194;43.408;24.626;2023-07-30T02:33:35;18.90;99.90
8313;DHT22;4194;43.408;24.626;2023-07-30T02:36:01;19.40;99.90
8313;DHT22;4194;43.408;24.626;2023-07-30T02:38:27;18.90;99.90
8313;DHT22;4194;43.408;24.626;2023-07-30T02:40:53;18.70;99.90
8313;DHT22;4194;43.408;24.626;2023-07-30T02:43:18;18.80;99.90
8313;DHT22;4194;43.408;24.626;2023-07-30T02:45:47;18.70;99.90
8313;DHT22;4194;43.408;24.626;2023-07-30T02:48:13;19.20;99.90
8313;DHT22;4194;43.408;24.626;2023-07-30T02:50:38;18.90;99.90
8313;DHT22;4194;43.408;24.626;2023-07-30T02:53:04;18.20;99.90
8313;DHT22;4194;43.408;24.626;2023-07-30T02:55:30;18.60;99.90
8313;DHT22;4194;43.408;24.626;2023-07-30T02:57:55;18.50;99.90
8313;DHT22;4194;43.408;24.626;2023-07-30T03:00:21;18.40;99.90
8313;DHT22;4194;43.408;24.626;2023-07-30T03:02:47;17.80;99.90
8313;DHT22;4194;43.408;24.626;2023-07-30T03:05:12;19.30;99.90
8313;DHT22;4194;43.408;24.626;2023-07-30T03:07:38;18.30;99.90
8313;DHT22;4194;43.408;24.626;2023-07-30T03:10:04;19.50;99.90
8313;DHT22;4194;43.408;24.626;2023-07-30T03:12:30;17.50;99.90
8313;DHT22;4194;43.408;24.626;2023-07-30T03:14:55;17.90;99.90
8313;DHT22;4194;43.408;24.626;2023-07-30T03:17:21;19.50;99.90
8313;DHT22;4194;43.408;24.626;2023-07-30T03:19:47;18.50;99.90
8313;DHT22;4194;43.408;24.626;2023-07-30T03:22:12;18.60;99.90
8313;DHT22;4194;43.408;24.626;2023-07-30T03:24:38;19.00;99.90
8313;DHT22;4194;43.408;24.626;2023-07-30T03:27:04;18.70;99.90
8313;DHT22;4194;43.408;24.626;2023-07-30T03:29:30;20.00;99.90
8313;DHT22;4194;43.408;24.626;2023-07-30T03:31:55;18.80;99.90
8313;DHT22;4194;43.408;24.626;2023-07-30T03:34:21;18.80;99.90
8313;DHT22;4194;43.408;24.626;2023-07-30T03:36:47;19.60;99.90
8313;DHT22;4194;43.408;24.626;2023-07-30T03:39:12;19.90;99.90
8313;DHT22;4194;43.408;24.626;2023-07-30T03:41:38;18.70;99.90
8313;DHT22;4194;43.408;24.626;2023-07-30T03:44:04;18.90;99.90
8313;DHT22;4194;43.408;24.626;2023-07-30T03:46:29;19.60;99.90
8313;DHT22;4194;43.408;24.626;2023-07-30T03:48:55;19.00;99.90
8313;DHT22;4194;43.408;24.626;2023-07-30T03:51:21;18.00;99.90
8313;DHT22;4194;43.408;24.626;2023-07-30T03:53:47;18.50;99.90
8313;DHT22;4194;43.408;24.626;2023-07-30T03:56:12;19.10;99.90
8313;DHT22;4194;43.408;24.626;2023-07-30T03:58:38;19.20;99.90
8313;DHT22;4194;43.408;24.626;2023-07-30T04:01:04;19.60;99.90
8313;DHT22;4194;43.408;24.626;2023-07-30T04:03:29;19.20;99.90
8313;DHT22;4194;43.408;24.626;2023-07-30T04:05:55;19.80;99.90
8313;DHT22;4194;43.408;24.626;2023-07-30T04:08:21;20.40;99.90
8313;DHT22;4194;43.408;24.626;2023-07-30T04:10:46;19.90;99.90
8313;DHT22;4194;43.408;24.626;2023-07-30T04:13:12;20.60;99.90
8313;DHT22;4194;43.408;24.626;2023-07-30T04:15:38;19.80;99.90
8313;DHT22;4194;43.408;24.626;2023-07-30T04:18:03;20.40;99.90
8313;DHT22;4194;43.408;24.626;2023-07-30T04:20:29;19.70;99.90
8313;DHT22;4194;43.408;24.626;2023-07-30T04:22:55;20.60;99.90
8313;DHT22;4194;43.408;24.626;2023-07-30T04:25:20;20.00;99.90
8313;DHT22;4194;43.408;24.626;2023-07-30T04:27:46;19.90;99.90
8313;DHT22;4194;43.408;24.626;2023-07-30T04:30:12;19.80;99.90
8313;DHT22;4194;43.408;24.626;2023-07-30T04:32:37;20.50;99.90
8313;DHT22;4194;43.408;24.626;2023-07-30T04:35:03;20.10;99.90
8313;DHT22;4194;43.408;24.626;2023-07-30T04:37:29;20.70;99.90
8313;DHT22;4194;43.408;24.626;2023-07-30T04:39:56;20.80;99.90
8313;DHT22;4194;43.408;24.626;2023-07-30T04:42:22;21.00;99.90
8313;DHT22;4194;43.408;24.626;2023-07-30T04:44:48;21.00;99.90
8313;DHT22;4194;43.408;24.626;2023-07-30T04:47:13;21.20;99.90
8313;DHT22;4194;43.408;24.626;2023-07-30T04:49:39;21.50;99.90
8313;DHT22;4194;43.408;24.626;2023-07-30T04:52:09;21.60;99.90
8313;DHT22;4194;43.408;24.626;2023-07-30T04:54:35;21.80;99.90
8313;DHT22;4194;43.408;24.626;2023-07-30T04:57:04;21.80;99.90
8313;DHT22;4194;43.408;24.626;2023-07-30T04:59:29;21.90;99.90
8313;DHT22;4194;43.408;24.626;2023-07-30T05:01:55;22.10;99.90
8313;DHT22;4194;43.408;24.626;2023-07-30T05:04:21;22.20;99.90
8313;DHT22;4194;43.408;24.626;2023-07-30T05:06:46;22.60;99.90
8313;DHT22;4194;43.408;24.626;2023-07-30T05:09:12;22.60;99.90
8313;DHT22;4194;43.408;24.626;2023-07-30T05:11:39;22.80;99.50
8313;DHT22;4194;43.408;24.626;2023-07-30T05:14:04;22.90;99.80
8313;DHT22;4194;43.408;24.626;2023-07-30T05:16:30;23.20;98.50
8313;DHT22;4194;43.408;24.626;2023-07-30T05:18:56;23.00;98.70
8313;DHT22;4194;43.408;24.626;2023-07-30T05:21:21;23.10;97.90
8313;DHT22;4194;43.408;24.626;2023-07-30T05:23:47;23.50;97.90
8313;DHT22;4194;43.408;24.626;2023-07-30T05:26:13;23.50;96.80
8313;DHT22;4194;43.408;24.626;2023-07-30T05:28:38;23.60;96.10
8313;DHT22;4194;43.408;24.626;2023-07-30T05:31:04;23.80;96.10
8313;DHT22;4194;43.408;24.626;2023-07-30T05:33:30;24.00;95.30
8313;DHT22;4194;43.408;24.626;2023-07-30T05:35:55;24.00;94.20
8313;DHT22;4194;43.408;24.626;2023-07-30T05:38:21;24.20;93.70
8313;DHT22;4194;43.408;24.626;2023-07-30T05:40:47;24.30;91.40
8313;DHT22;4194;43.408;24.626;2023-07-30T05:43:13;24.40;90.90
8313;DHT22;4194;43.408;24.626;2023-07-30T05:45:38;24.50;90.20
8313;DHT22;4194;43.408;24.626;2023-07-30T05:48:05;24.70;89.90
8313;DHT22;4194;43.408;24.626;2023-07-30T05:50:31;24.80;89.90
8313;DHT22;4194;43.408;24.626;2023-07-30T05:52:57;24.40;89.10
8313;DHT22;4194;43.408;24.626;2023-07-30T05:55:22;25.10;90.20
8313;DHT22;4194;43.408;24.626;2023-07-30T05:57:48;25.30;89.70
8313;DHT22;4194;43.408;24.626;2023-07-30T06:00:14;25.40;88.30
8313;DHT22;4194;43.408;24.626;2023-07-30T06:02:40;24.80;85.20
8313;DHT22;4194;43.408;24.626;2023-07-30T06:05:05;26.50;87.00
8313;DHT22;4194;43.408;24.626;2023-07-30T06:07:31;25.70;87.00
8313;DHT22;4194;43.408;24.626;2023-07-30T06:09:57;26.50;83.60
8313;DHT22;4194;43.408;24.626;2023-07-30T06:12:22;25.80;84.20
8313;DHT22;4194;43.408;24.626;2023-07-30T06:14:48;25.90;84.60
8313;DHT22;4194;43.408;24.626;2023-07-30T06:17:13;26.00;85.10
8313;DHT22;4194;43.408;24.626;2023-07-30T06:19:39;26.10;83.80
8313;DHT22;4194;43.408;24.626;2023-07-30T06:22:05;26.20;85.10
8313;DHT22;4194;43.408;24.626;2023-07-30T06:24:31;26.00;85.30
8313;DHT22;4194;43.408;24.626;2023-07-30T06:26:56;26.20;84.70
8313;DHT22;4194;43.408;24.626;2023-07-30T06:29:22;25.90;84.60
8313;DHT22;4194;43.408;24.626;2023-07-30T06:31:48;26.10;84.40
8313;DHT22;4194;43.408;24.626;2023-07-30T06:34:13;26.20;83.70
8313;DHT22;4194;43.408;24.626;2023-07-30T06:36:40;26.20;83.50
8313;DHT22;4194;43.408;24.626;2023-07-30T06:39:06;26.20;83.00
8313;DHT22;4194;43.408;24.626;2023-07-30T06:41:31;26.20;83.10
8313;DHT22;4194;43.408;24.626;2023-07-30T06:43:57;25.80;81.90
8313;DHT22;4194;43.408;24.626;2023-07-30T06:46:23;26.40;83.30
8313;DHT22;4194;43.408;24.626;2023-07-30T06:48:48;26.40;84.10
8313;DHT22;4194;43.408;24.626;2023-07-30T06:51:14;26.60;84.20
8313;DHT22;4194;43.408;24.626;2023-07-30T06:53:39;26.80;80.60
8313;DHT22;4194;43.408;24.626;2023-07-30T06:56:05;26.00;80.00
8313;DHT22;4194;43.408;24.626;2023-07-30T06:58:31;27.00;80.60
8313;DHT22;4194;43.408;24.626;2023-07-30T07:00:56;27.00;81.10
8313;DHT22;4194;43.408;24.626;2023-07-30T07:03:22;27.10;80.70
8313;DHT22;4194;43.408;24.626;2023-07-30T07:05:57;27.40;80.40
8313;DHT22;4194;43.408;24.626;2023-07-30T07:08:23;27.50;79.30
8313;DHT22;4194;43.408;24.626;2023-07-30T07:10:49;27.70;78.20
8313;DHT22;4194;43.408;24.626;2023-07-30T07:13:15;27.90;77.30
8313;DHT22;4194;43.408;24.626;2023-07-30T07:15:42;27.70;76.10
8313;DHT22;4194;43.408;24.626;2023-07-30T07:18:08;28.20;77.30
8313;DHT22;4194;43.408;24.626;2023-07-30T07:20:33;28.20;75.00
8313;DHT22;4194;43.408;24.626;2023-07-30T07:22:59;28.20;75.70
8313;DHT22;4194;43.408;24.626;2023-07-30T07:25:25;28.30;75.50
8313;DHT22;4194;43.408;24.626;2023-07-30T07:27:51;28.60;74.20
8313;DHT22;4194;43.408;24.626;2023-07-30T07:30:17;28.30;73.00
8313;DHT22;4194;43.408;24.626;2023-07-30T07:32:42;28.80;74.10
8313;DHT22;4194;43.408;24.626;2023-07-30T07:35:08;29.10;73.00
8313;DHT22;4194;43.408;24.626;2023-07-30T07:37:34;29.00;72.10
8313;DHT22;4194;43.408;24.626;2023-07-30T07:40:00;29.00;71.20
8313;DHT22;4194;43.408;24.626;2023-07-30T07:42:25;29.10;70.90
8313;DHT22;4194;43.408;24.626;2023-07-30T07:44:51;29.10;71.70
8313;DHT22;4194;43.408;24.626;2023-07-30T07:47:17;29.20;70.80
8313;DHT22;4194;43.408;24.626;2023-07-30T07:49:42;29.40;69.90
8313;DHT22;4194;43.408;24.626;2023-07-30T07:52:08;29.30;69.40
8313;DHT22;4194;43.408;24.626;2023-07-30T07:54:34;29.50;68.30
8313;DHT22;4194;43.408;24.626;2023-07-30T07:57:00;29.10;68.60
8313;DHT22;4194;43.408;24.626;2023-07-30T07:59:25;29.50;69.30
8313;DHT22;4194;43.408;24.626;2023-07-30T08:01:53;29.60;68.20
8313;DHT22;4194;43.408;24.626;2023-07-30T08:04:18;29.90;69.00
8313;DHT22;4194;43.408;24.626;2023-07-30T08:06:47;30.30;67.80
8313;DHT22;4194;43.408;24.626;2023-07-30T08:09:12;30.50;67.10
8313;DHT22;4194;43.408;24.626;2023-07-30T08:11:38;30.70;67.70
8313;DHT22;4194;43.408;24.626;2023-07-30T08:14:04;30.90;65.20
8313;DHT22;4194;43.408;24.626;2023-07-30T08:16:29;30.70;65.60
8313;DHT22;4194;43.408;24.626;2023-07-30T08:18:55;30.90;66.20
8313;DHT22;4194;43.408;24.626;2023-07-30T08:21:21;31.00;64.50
8313;DHT22;4194;43.408;24.626;2023-07-30T08:23:47;31.10;64.50
8313;DHT22;4194;43.408;24.626;2023-07-30T08:26:12;31.30;62.20
8313;DHT22;4194;43.408;24.626;2023-07-30T08:28:38;31.30;61.00
8313;DHT22;4194;43.408;24.626;2023-07-30T08:31:05;31.40;61.10
8313;DHT22;4194;43.408;24.626;2023-07-30T08:33:31;31.50;61.70
8313;DHT22;4194;43.408;24.626;2023-07-30T08:35:58;31.50;60.80
8313;DHT22;4194;43.408;24.626;2023-07-30T08:38:24;32.20;58.80
8313;DHT22;4194;43.408;24.626;2023-07-30T08:40:50;31.70;59.10
8313;DHT22;4194;43.408;24.626;2023-07-30T08:43:16;31.70;58.90
8313;DHT22;4194;43.408;24.626;2023-07-30T08:45:42;31.90;58.90
8313;DHT22;4194;43.408;24.626;2023-07-30T08:48:08;32.00;58.10
8313;DHT22;4194;43.408;24.626;2023-07-30T08:50:35;32.20;58.10
8313;DHT22;4194;43.408;24.626;2023-07-30T08:53:02;32.40;58.20
8313;DHT22;4194;43.408;24.626;2023-07-30T08:55:29;31.70;54.90
8313;DHT22;4194;43.408;24.626;2023-07-30T08:57:57;32.40;55.50
8313;DHT22;4194;43.408;24.626;2023-07-30T09:00:25;32.30;55.70
8313;DHT22;4194;43.408;24.626;2023-07-30T09:02:56;32.40;54.20
8313;DHT22;4194;43.408;24.626;2023-07-30T09:05:23;32.50;54.60
8313;DHT22;4194;43.408;24.626;2023-07-30T09:07:49;32.50;53.60
8313;DHT22;4194;43.408;24.626;2023-07-30T09:10:15;32.90;53.60
8313;DHT22;4194;43.408;24.626;2023-07-30T09:12:41;33.00;53.90
8313;DHT22;4194;43.408;24.626;2023-07-30T09:15:07;33.20;52.90
8313;DHT22;4194;43.408;24.626;2023-07-30T09:17:34;33.00;50.70
8313;DHT22;4194;43.408;24.626;2023-07-30T09:20:00;33.20;51.30
8313;DHT22;4194;43.408;24.626;2023-07-30T09:22:30;33.30;50.00
8313;DHT22;4194;43.408;24.626;2023-07-30T09:25:00;33.50;49.80
8313;DHT22;4194;43.408;24.626;2023-07-30T09:27:27;34.00;49.00
8313;DHT22;4194;43.408;24.626;2023-07-30T09:29:57;33.90;49.50
8313;DHT22;4194;43.408;24.626;2023-07-30T09:32:34;33.90;49.10
8313;DHT22;4194;43.408;24.626;2023-07-30T09:37:41;34.70;47.50
8313;DHT22;4194;43.408;24.626;2023-07-30T09:40:08;33.90;47.30
8313;DHT22;4194;43.408;24.626;2023-07-30T09:42:35;33.90;47.20
8313;DHT22;4194;43.408;24.626;2023-07-30T09:45:08;34.10;48.40
8313;DHT22;4194;43.408;24.626;2023-07-30T09:47:37;34.20;46.50
8313;DHT22;4194;43.408;24.626;2023-07-30T09:50:02;34.50;46.00
8313;DHT22;4194;43.408;24.626;2023-07-30T09:52:30;34.50;46.40
8313;DHT22;4194;43.408;24.626;2023-07-30T09:54:57;34.50;46.00
8313;DHT22;4194;43.408;24.626;2023-07-30T09:57:24;34.70;45.50
8313;DHT22;4194;43.408;24.626;2023-07-30T09:59:49;34.90;43.50
8313;DHT22;4194;43.408;24.626;2023-07-30T10:02:16;35.00;43.80
8313;DHT22;4194;43.408;24.626;2023-07-30T10:04:43;35.10;40.50
8313;DHT22;4194;43.408;24.626;2023-07-30T10:07:16;35.10;41.10
8313;DHT22;4194;43.408;24.626;2023-07-30T10:09:45;35.20;43.90
8313;DHT22;4194;43.408;24.626;2023-07-30T10:12:22;35.30;43.40
8313;DHT22;4194;43.408;24.626;2023-07-30T10:14:49;35.30;41.70
8313;DHT22;4194;43.408;24.626;2023-07-30T10:17:16;35.40;41.10
8313;DHT22;4194;43.408;24.626;2023-07-30T10:19:46;36.40;41.30
8313;DHT22;4194;43.408;24.626;2023-07-30T10:24:56;36.00;41.80
8313;DHT22;4194;43.408;24.626;2023-07-30T10:27:27;36.10;40.60
8313;DHT22;4194;43.408;24.626;2023-07-30T10:30:13;36.20;40.60
8313;DHT22;4194;43.408;24.626;2023-07-30T10:35:08;36.60;40.40
8313;DHT22;4194;43.408;24.626;2023-07-30T10:37:34;36.40;38.70
8313;DHT22;4194;43.408;24.626;2023-07-30T10:40:00;36.00;38.50
8313;DHT22;4194;43.408;24.626;2023-07-30T10:42:35;36.60;40.10
8313;DHT22;4194;43.408;24.626;2023-07-30T10:45:00;37.30;40.10
8313;DHT22;4194;43.408;24.626;2023-07-30T10:47:29;37.60;39.20
8313;DHT22;4194;43.408;24.626;2023-07-30T10:50:01;38.30;39.40
8313;DHT22;4194;43.408;24.626;2023-07-30T10:52:27;39.00;38.50
8313;DHT22;4194;43.408;24.626;2023-07-30T10:55:00;39.30;37.70
8313;DHT22;4194;43.408;24.626;2023-07-30T10:57:30;39.40;36.20
8313;DHT22;4194;43.408;24.626;2023-07-30T10:59:58;39.80;36.70
8313;DHT22;4194;43.408;24.626;2023-07-30T11:02:24;40.30;36.80
8313;DHT22;4194;43.408;24.626;2023-07-30T11:04:50;40.40;36.20
8313;DHT22;4194;43.408;24.626;2023-07-30T11:07:17;40.30;35.90
8313;DHT22;4194;43.408;24.626;2023-07-30T11:09:44;40.20;36.50
8313;DHT22;4194;43.408;24.626;2023-07-30T11:12:10;40.50;36.30
8313;DHT22;4194;43.408;24.626;2023-07-30T11:14:36;40.60;35.80
8313;DHT22;4194;43.408;24.626;2023-07-30T11:17:01;40.90;36.10
8313;DHT22;4194;43.408;24.626;2023-07-30T11:19:29;41.30;34.20
8313;DHT22;4194;43.408;24.626;2023-07-30T11:21:56;41.50;34.40
8313;DHT22;4194;43.408;24.626;2023-07-30T11:24:23;41.90;34.60
8313;DHT22;4194;43.408;24.626;2023-07-30T11:26:59;42.20;35.30
8313;DHT22;4194;43.408;24.626;2023-07-30T11:29:25;42.40;33.90
8313;DHT22;4194;43.408;24.626;2023-07-30T11:31:50;42.50;34.40
8313;DHT22;4194;43.408;24.626;2023-07-30T11:34:16;42.50;35.10
8313;DHT22;4194;43.408;24.626;2023-07-30T11:36:44;42.50;33.60
8313;DHT22;4194;43.408;24.626;2023-07-30T11:39:10;42.90;34.80
8313;DHT22;4194;43.408;24.626;2023-07-30T11:41:37;42.80;34.00
8313;DHT22;4194;43.408;24.626;2023-07-30T11:44:03;42.30;33.10
8313;DHT22;4194;43.408;24.626;2023-07-30T11:46:29;42.10;32.70
8313;DHT22;4194;43.408;24.626;2023-07-30T11:49:12;41.40;33.00
8313;DHT22;4194;43.408;24.626;2023-07-30T11:51:39;41.30;33.80
8313;DHT22;4194;43.408;24.626;2023-07-30T11:54:04;41.00;34.00
8313;DHT22;4194;43.408;24.626;2023-07-30T11:56:31;40.80;34.30
8313;DHT22;4194;43.408;24.626;2023-07-30T11:59:20;40.90;33.90
8313;DHT22;4194;43.408;24.626;2023-07-30T12:01:47;41.00;33.50
8313;DHT22;4194;43.408;24.626;2023-07-30T12:04:13;41.40;33.50
8313;DHT22;4194;43.408;24.626;2023-07-30T12:06:48;41.40;33.40
8313;DHT22;4194;43.408;24.626;2023-07-30T12:09:19;41.40;32.60
8313;DHT22;4194;43.408;24.626;2023-07-30T12:11:50;41.90;33.70
8313;DHT22;4194;43.408;24.626;2023-07-30T12:14:16;42.10;34.20
8313;DHT22;4194;43.408;24.626;2023-07-30T12:16:42;42.50;33.90
8313;DHT22;4194;43.408;24.626;2023-07-30T12:19:08;42.50;33.00
8313;DHT22;4194;43.408;24.626;2023-07-30T12:21:33;42.70;32.80
8313;DHT22;4194;43.408;24.626;2023-07-30T12:23:59;42.80;32.90
8313;DHT22;4194;43.408;24.626;2023-07-30T12:26:25;43.20;32.50
8313;DHT22;4194;43.408;24.626;2023-07-30T12:28:50;44.40;30.80
8313;DHT22;4194;43.408;24.626;2023-07-30T12:31:16;44.50;32.00
8313;DHT22;4194;43.408;24.626;2023-07-30T12:33:43;44.20;31.70
8313;DHT22;4194;43.408;24.626;2023-07-30T12:36:09;44.30;30.00
8313;DHT22;4194;43.408;24.626;2023-07-30T12:38:34;44.20;31.10
8313;DHT22;4194;43.408;24.626;2023-07-30T12:41:00;43.70;31.60
8313;DHT22;4194;43.408;24.626;2023-07-30T12:43:26;43.90;32.70
8313;DHT22;4194;43.408;24.626;2023-07-30T12:45:51;44.20;31.10
8313;DHT22;4194;43.408;24.626;2023-07-30T12:48:17;44.70;30.90
8313;DHT22;4194;43.408;24.626;2023-07-30T12:50:42;44.60;31.00
8313;DHT22;4194;43.408;24.626;2023-07-30T12:53:08;44.90;30.50
8313;DHT22;4194;43.408;24.626;2023-07-30T12:55:34;44.80;31.80
8313;DHT22;4194;43.408;24.626;2023-07-30T12:57:59;45.40;31.90
8313;DHT22;4194;43.408;24.626;2023-07-30T13:00:25;46.20;31.10
8313;DHT22;4194;43.408;24.626;2023-07-30T13:02:51;47.00;30.10
8313;DHT22;4194;43.408;24.626;2023-07-30T13:05:22;47.10;30.10
8313;DHT22;4194;43.408;24.626;2023-07-30T13:07:48;47.50;29.80
8313;DHT22;4194;43.408;24.626;2023-07-30T13:10:14;47.60;30.50
8313;DHT22;4194;43.408;24.626;2023-07-30T13:15:07;47.80;28.40
8313;DHT22;4194;43.408;24.626;2023-07-30T13:17:33;47.60;28.90
8313;DHT22;4194;43.408;24.626;2023-07-30T13:19:58;47.30;28.80
8313;DHT22;4194;43.408;24.626;2023-07-30T13:22:24;47.00;29.70
8313;DHT22;4194;43.408;24.626;2023-07-30T13:24:50;47.40;29.30
8313;DHT22;4194;43.408;24.626;2023-07-30T13:27:17;47.40;28.20
8313;DHT22;4194;43.408;24.626;2023-07-30T13:29:42;47.00;28.60
8313;DHT22;4194;43.408;24.626;2023-07-30T13:32:08;46.90;28.10
8313;DHT22;4194;43.408;24.626;2023-07-30T13:34:34;47.60;28.50
8313;DHT22;4194;43.408;24.626;2023-07-30T13:37:00;47.10;28.90
8313;DHT22;4194;43.408;24.626;2023-07-30T13:39:25;47.30;28.50
8313;DHT22;4194;43.408;24.626;2023-07-30T13:41:51;47.40;28.40
8313;DHT22;4194;43.408;24.626;2023-07-30T13:44:16;47.90;30.00
8313;DHT22;4194;43.408;24.626;2023-07-30T13:46:42;48.70;28.00
8313;DHT22;4194;43.408;24.626;2023-07-30T13:49:08;49.30;27.10
8313;DHT22;4194;43.408;24.626;2023-07-30T13:51:33;49.60;27.00
8313;DHT22;4194;43.408;24.626;2023-07-30T13:54:00;49.30;27.30
8313;DHT22;4194;43.408;24.626;2023-07-30T13:56:27;50.00;27.00
8313;DHT22;4194;43.408;24.626;2023-07-30T13:58:53;50.60;27.10
8313;DHT22;4194;43.408;24.626;2023-07-30T14:01:18;51.10;26.20
8313;DHT22;4194;43.408;24.626;2023-07-30T14:03:44;50.90;26.30
8313;DHT22;4194;43.408;24.626;2023-07-30T14:06:10;50.00;27.20
8313;DHT22;4194;43.408;24.626;2023-07-30T14:08:36;49.40;27.00
8313;DHT22;4194;43.408;24.626;2023-07-30T14:11:02;49.20;27.50
8313;DHT22;4194;43.408;24.626;2023-07-30T14:13:27;50.00;27.20
8313;DHT22;4194;43.408;24.626;2023-07-30T14:15:53;50.50;27.40
8313;DHT22;4194;43.408;24.626;2023-07-30T14:18:19;50.90;26.80
8313;DHT22;4194;43.408;24.626;2023-07-30T14:20:45;51.20;26.70
8313;DHT22;4194;43.408;24.626;2023-07-30T14:23:11;51.30;26.60
8313;DHT22;4194;43.408;24.626;2023-07-30T14:25:37;51.10;26.60
8313;DHT22;4194;43.408;24.626;2023-07-30T14:28:03;51.50;27.00
8313;DHT22;4194;43.408;24.626;2023-07-30T14:30:29;51.80;26.40
8313;DHT22;4194;43.408;24.626;2023-07-30T14:32:55;51.30;26.20
8313;DHT22;4194;43.408;24.626;2023-07-30T14:35:20;51.40;26.80
8313;DHT22;4194;43.408;24.626;2023-07-30T14:37:46;52.30;26.30
8313;DHT22;4194;43.408;24.626;2023-07-30T14:40:12;52.30;26.50
8313;DHT22;4194;43.408;24.626;2023-07-30T14:42:38;52.30;26.70
8313;DHT22;4194;43.408;24.626;2023-07-30T14:45:05;52.40;26.40
8313;DHT22;4194;43.408;24.626;2023-07-30T14:47:32;52.90;26.00
8313;DHT22;4194;43.408;24.626;2023-07-30T14:49:58;51.90;26.20
8313;DHT22;4194;43.408;24.626;2023-07-30T14:52:24;51.60;26.30
8313;DHT22;4194;43.408;24.626;2023-07-30T14:54:50;52.00;26.20
8313;DHT22;4194;43.408;24.626;2023-07-30T14:57:16;52.70;25.90
8313;DHT22;4194;43.408;24.626;2023-07-30T14:59:42;52.80;25.90
8313;DHT22;4194;43.408;24.626;2023-07-30T15:02:07;52.80;25.70
8313;DHT22;4194;43.408;24.626;2023-07-30T15:04:33;53.00;26.20
8313;DHT22;4194;43.408;24.626;2023-07-30T15:06:59;53.00;26.20
8313;DHT22;4194;43.408;24.626;2023-07-30T15:09:25;53.20;25.90
8313;DHT22;4194;43.408;24.626;2023-07-30T15:11:50;53.00;27.30
8313;DHT22;4194;43.408;24.626;2023-07-30T15:14:16;52.90;27.40
8313;DHT22;4194;43.408;24.626;2023-07-30T15:16:42;52.70;26.20
8313;DHT22;4194;43.408;24.626;2023-07-30T15:19:07;52.40;27.20
8313;DHT22;4194;43.408;24.626;2023-07-30T15:21:33;52.70;28.20
8313;DHT22;4194;43.408;24.626;2023-07-30T15:24:00;52.70;26.30
8313;DHT22;4194;43.408;24.626;2023-07-30T15:26:26;52.90;26.50
8313;DHT22;4194;43.408;24.626;2023-07-30T15:28:52;53.00;26.30
8313;DHT22;4194;43.408;24.626;2023-07-30T15:31:18;52.90;26.30
8313;DHT22;4194;43.408;24.626;2023-07-30T15:33:44;52.30;26.40
8313;DHT22;4194;43.408;24.626;2023-07-30T15:36:09;52.10;27.60
8313;DHT22;4194;43.408;24.626;2023-07-30T15:38:35;52.10;27.10
8313;DHT22;4194;43.408;24.626;2023-07-30T15:41:01;51.70;27.50
8313;DHT22;4194;43.408;24.626;2023-07-30T15:43:27;51.40;28.10
8313;DHT22;4194;43.408;24.626;2023-07-30T15:45:53;51.40;28.00
8313;DHT22;4194;43.408;24.626;2023-07-30T15:48:19;51.20;29.50
8313;DHT22;4194;43.408;24.626;2023-07-30T15:50:45;51.40;27.10
8313;DHT22;4194;43.408;24.626;2023-07-30T15:53:10;51.00;27.00
8313;DHT22;4194;43.408;24.626;2023-07-30T15:55:36;50.70;28.40
8313;DHT22;4194;43.408;24.626;2023-07-30T15:58:02;50.80;27.30